Airfield :
LOGIN :

Register | Disclaimer

   EN    FR    IT 

 










Legend :    VFR   Marginal VFR   IFR   Intensive IFR   Very Intensive IFR
Visi :
Ceiling :
>= 8 km
>= 3000ft
5 to 8 km
1000 to 3000 ft
1500m to 5 km
500 to 1000 ft
800 to 1500m
200 to 500 ft
< 800m
< 200 ft
Symbols :   Thunderstorms  Fog  Heavy snow  Heavy precipitations  Wind > 20 kt
SIGMETs :     Misc.  Thunderstorms  Icing  Turbulence  Mountain Waves  Volcanic Ashes






- Airport Elevation : 336 ft
- IATA code : GCI


EGJB - Guernsey

CURRENT METAR :
  • 100520Z 20020KT 9999 FEW015 09/06 Q1023

EXPIRED METARs :
  • 100450Z 20017KT 9999 FEW015 09/06 Q1023
  • 100420Z 20014KT 9999 FEW015 09/06 Q1024
  • 100350Z 21015KT 9999 FEW015 09/06 Q1024
  • 100250Z 21011KT 9999 FEW018 09/06 Q1025

TAF TAF EGJB
Valid from the 10 at 03:00 until the 10 at 12:00 UTC


100204Z 1003/1012 21015KT 9999 FEW025
BECMG 1005/1007 18020KT
PROB40
TEMPO 1008/1010 19024G34KT 8000 -RA BKN015
BECMG 1010/1012 19025G35KT 5000 -RADZ OVC013
ATIS : +44 1481 238 957



MET'MAP, your aeronautical weather chart ! - Copyright ORBIFLY December 2007 - Disclaimer

ORBIFLY MET'MAP TEAM :

Programming & Development : Alexandra Zaïnal
Concept & original design : Baudouin d'Aumeries
Assistance for programming : Marc-Olivier Méhu
Technical & hardware support : Manuel Goepfert

Contact : metmap@orbifly.com




SOURCES & CREDITS :

   NOAA